sensor_id;sensor_type;location;lat;lon;timestamp;P1;durP1;ratioP1;P2;durP2;ratioP2
27977;SDS011;15314;49.248;6.968;2023-05-07T00:00:19;7.00;;;6.60;;
27977;SDS011;15314;49.248;6.968;2023-05-07T00:01:20;6.82;;;6.32;;
27977;SDS011;15314;49.248;6.968;2023-05-07T00:02:21;6.82;;;6.32;;
27977;SDS011;15314;49.248;6.968;2023-05-07T00:03:22;6.80;;;6.38;;
27977;SDS011;15314;49.248;6.968;2023-05-07T00:04:23;7.32;;;6.93;;
27977;SDS011;15314;49.248;6.968;2023-05-07T00:05:24;7.38;;;6.68;;
27977;SDS011;15314;49.248;6.968;2023-05-07T00:06:25;7.57;;;7.07;;
27977;SDS011;15314;49.248;6.968;2023-05-07T00:07:26;7.05;;;6.65;;
27977;SDS011;15314;49.248;6.968;2023-05-07T00:08:27;6.80;;;6.38;;
27977;SDS011;15314;49.248;6.968;2023-05-07T00:09:27;7.40;;;6.90;;
27977;SDS011;15314;49.248;6.968;2023-05-07T00:10:28;7.50;;;7.00;;
27977;SDS011;15314;49.248;6.968;2023-05-07T00:11:29;7.97;;;7.35;;
27977;SDS011;15314;49.248;6.968;2023-05-07T00:12:30;7.63;;;6.93;;
27977;SDS011;15314;49.248;6.968;2023-05-07T00:13:33;7.15;;;6.65;;
27977;SDS011;15314;49.248;6.968;2023-05-07T00:14:35;7.25;;;6.85;;
27977;SDS011;15314;49.248;6.968;2023-05-07T00:15:36;7.57;;;7.00;;
27977;SDS011;15314;49.248;6.968;2023-05-07T00:16:37;7.72;;;7.22;;
27977;SDS011;15314;49.248;6.968;2023-05-07T00:17:37;7.05;;;6.45;;
27977;SDS011;15314;49.248;6.968;2023-05-07T00:18:38;7.05;;;6.65;;
27977;SDS011;15314;49.248;6.968;2023-05-07T00:19:39;7.68;;;7.03;;
27977;SDS011;15314;49.248;6.968;2023-05-07T00:20:39;8.10;;;6.88;;
27977;SDS011;15314;49.248;6.968;2023-05-07T00:21:40;7.43;;;6.78;;
27977;SDS011;15314;49.248;6.968;2023-05-07T00:22:40;9.70;;;6.95;;
27977;SDS011;15314;49.248;6.968;2023-05-07T00:23:41;7.22;;;6.60;;
27977;SDS011;15314;49.248;6.968;2023-05-07T00:24:42;6.88;;;6.47;;
27977;SDS011;15314;49.248;6.968;2023-05-07T00:25:43;8.52;;;6.75;;
27977;SDS011;15314;49.248;6.968;2023-05-07T00:26:43;6.70;;;6.28;;
27977;SDS011;15314;49.248;6.968;2023-05-07T00:27:44;7.00;;;6.47;;
27977;SDS011;15314;49.248;6.968;2023-05-07T00:28:45;6.72;;;6.22;;
27977;SDS011;15314;49.248;6.968;2023-05-07T00:29:45;6.63;;;6.13;;
27977;SDS011;15314;49.248;6.968;2023-05-07T00:30:46;7.05;;;6.47;;
27977;SDS011;15314;49.248;6.968;2023-05-07T00:31:48;6.78;;;6.45;;
27977;SDS011;15314;49.248;6.968;2023-05-07T00:32:50;6.70;;;6.30;;
27977;SDS011;15314;49.248;6.968;2023-05-07T00:33:50;7.40;;;6.70;;
27977;SDS011;15314;49.248;6.968;2023-05-07T00:34:51;7.00;;;6.50;;
27977;SDS011;15314;49.248;6.968;2023-05-07T00:35:52;6.93;;;6.53;;
27977;SDS011;15314;49.248;6.968;2023-05-07T00:36:54;7.50;;;6.90;;
27977;SDS011;15314;49.248;6.968;2023-05-07T00:37:54;7.15;;;6.55;;
27977;SDS011;15314;49.248;6.968;2023-05-07T00:38:56;6.95;;;6.40;;
27977;SDS011;15314;49.248;6.968;2023-05-07T00:39:58;6.70;;;6.30;;
27977;SDS011;15314;49.248;6.968;2023-05-07T00:40:59;7.07;;;6.57;;
27977;SDS011;15314;49.248;6.968;2023-05-07T00:42:00;6.55;;;6.10;;
27977;SDS011;15314;49.248;6.968;2023-05-07T00:43:01;7.30;;;6.57;;
27977;SDS011;15314;49.248;6.968;2023-05-07T00:44:02;7.07;;;6.57;;
27977;SDS011;15314;49.248;6.968;2023-05-07T00:45:03;7.28;;;6.82;;
27977;SDS011;15314;49.248;6.968;2023-05-07T00:46:04;7.35;;;6.70;;
27977;SDS011;15314;49.248;6.968;2023-05-07T00:47:05;6.40;;;6.00;;
27977;SDS011;15314;49.248;6.968;2023-05-07T00:48:06;7.10;;;6.60;;
27977;SDS011;15314;49.248;6.968;2023-05-07T00:49:07;8.02;;;6.20;;
27977;SDS011;15314;49.248;6.968;2023-05-07T00:50:08;6.78;;;6.38;;
27977;SDS011;15314;49.248;6.968;2023-05-07T00:51:10;7.38;;;6.70;;
27977;SDS011;15314;49.248;6.968;2023-05-07T00:52:13;7.18;;;6.53;;
27977;SDS011;15314;49.248;6.968;2023-05-07T00:53:15;7.63;;;7.03;;
27977;SDS011;15314;49.248;6.968;2023-05-07T00:54:16;7.72;;;7.20;;
27977;SDS011;15314;49.248;6.968;2023-05-07T00:55:17;7.22;;;6.63;;
27977;SDS011;15314;49.248;6.968;2023-05-07T00:56:18;7.68;;;6.95;;
27977;SDS011;15314;49.248;6.968;2023-05-07T00:57:20;6.88;;;6.47;;
27977;SDS011;15314;49.248;6.968;2023-05-07T00:58:22;7.00;;;6.50;;
27977;SDS011;15314;49.248;6.968;2023-05-07T00:59:23;7.30;;;6.80;;
27977;SDS011;15314;49.248;6.968;2023-05-07T01:00:24;6.97;;;6.57;;
27977;SDS011;15314;49.248;6.968;2023-05-07T01:01:25;6.50;;;6.20;;
27977;SDS011;15314;49.248;6.968;2023-05-07T01:02:26;7.10;;;6.60;;
27977;SDS011;15314;49.248;6.968;2023-05-07T01:03:27;7.07;;;6.53;;
27977;SDS011;15314;49.248;6.968;2023-05-07T01:04:27;7.55;;;6.97;;
27977;SDS011;15314;49.248;6.968;2023-05-07T01:05:28;7.88;;;7.38;;
27977;SDS011;15314;49.248;6.968;2023-05-07T01:06:30;7.60;;;7.10;;
27977;SDS011;15314;49.248;6.968;2023-05-07T01:07:33;8.07;;;7.50;;
27977;SDS011;15314;49.248;6.968;2023-05-07T01:08:34;7.60;;;7.10;;
27977;SDS011;15314;49.248;6.968;2023-05-07T01:09:36;7.43;;;6.93;;
27977;SDS011;15314;49.248;6.968;2023-05-07T01:10:37;7.28;;;6.70;;
27977;SDS011;15314;49.248;6.968;2023-05-07T01:11:42;7.22;;;6.63;;
27977;SDS011;15314;49.248;6.968;2023-05-07T01:12:44;7.15;;;6.63;;
27977;SDS011;15314;49.248;6.968;2023-05-07T01:13:47;7.57;;;7.03;;
27977;SDS011;15314;49.248;6.968;2023-05-07T01:14:48;7.05;;;6.55;;
27977;SDS011;15314;49.248;6.968;2023-05-07T01:15:50;7.30;;;6.80;;
27977;SDS011;15314;49.248;6.968;2023-05-07T01:16:51;7.38;;;6.90;;
27977;SDS011;15314;49.248;6.968;2023-05-07T01:17:52;7.00;;;6.53;;
27977;SDS011;15314;49.248;6.968;2023-05-07T01:18:52;7.28;;;6.72;;
27977;SDS011;15314;49.248;6.968;2023-05-07T01:19:53;7.40;;;6.90;;
27977;SDS011;15314;49.248;6.968;2023-05-07T01:20:54;7.10;;;6.68;;
27977;SDS011;15314;49.248;6.968;2023-05-07T01:22:01;7.50;;;6.90;;
27977;SDS011;15314;49.248;6.968;2023-05-07T01:23:04;7.53;;;6.72;;
27977;SDS011;15314;49.248;6.968;2023-05-07T01:24:06;7.03;;;6.55;;
27977;SDS011;15314;49.248;6.968;2023-05-07T01:25:07;6.95;;;6.35;;
27977;SDS011;15314;49.248;6.968;2023-05-07T01:26:08;6.88;;;6.28;;
27977;SDS011;15314;49.248;6.968;2023-05-07T01:27:09;6.57;;;6.07;;
27977;SDS011;15314;49.248;6.968;2023-05-07T01:28:09;6.78;;;6.28;;
27977;SDS011;15314;49.248;6.968;2023-05-07T01:29:10;7.13;;;6.70;;
27977;SDS011;15314;49.248;6.968;2023-05-07T01:30:11;6.97;;;6.57;;
27977;SDS011;15314;49.248;6.968;2023-05-07T01:31:12;7.43;;;6.82;;
27977;SDS011;15314;49.248;6.968;2023-05-07T01:32:14;7.60;;;7.10;;
27977;SDS011;15314;49.248;6.968;2023-05-07T01:33:18;6.93;;;6.53;;
27977;SDS011;15314;49.248;6.968;2023-05-07T01:34:21;7.10;;;6.70;;
27977;SDS011;15314;49.248;6.968;2023-05-07T01:35:28;6.82;;;6.53;;
27977;SDS011;15314;49.248;6.968;2023-05-07T01:36:32;7.63;;;7.00;;
27977;SDS011;15314;49.248;6.968;2023-05-07T01:37:33;7.68;;;6.97;;
27977;SDS011;15314;49.248;6.968;2023-05-07T01:38:34;7.57;;;6.97;;
27977;SDS011;15314;49.248;6.968;2023-05-07T01:39:37;7.90;;;7.30;;
27977;SDS011;15314;49.248;6.968;2023-05-07T01:40:39;7.05;;;6.47;;
27977;SDS011;15314;49.248;6.968;2023-05-07T01:41:40;7.93;;;7.32;;
27977;SDS011;15314;49.248;6.968;2023-05-07T01:42:43;8.25;;;7.57;;
27977;SDS011;15314;49.248;6.968;2023-05-07T01:43:44;7.88;;;7.18;;
27977;SDS011;15314;49.248;6.968;2023-05-07T01:44:46;6.88;;;6.47;;
27977;SDS011;15314;49.248;6.968;2023-05-07T01:45:46;7.32;;;6.82;;
27977;SDS011;15314;49.248;6.968;2023-05-07T01:46:49;7.20;;;6.70;;
27977;SDS011;15314;49.248;6.968;2023-05-07T01:47:49;7.55;;;7.07;;
27977;SDS011;15314;49.248;6.968;2023-05-07T01:48:51;7.20;;;6.70;;
27977;SDS011;15314;49.248;6.968;2023-05-07T01:49:51;6.82;;;6.32;;
27977;SDS011;15314;49.248;6.968;2023-05-07T01:50:52;7.15;;;6.75;;
27977;SDS011;15314;49.248;6.968;2023-05-07T01:51:54;7.93;;;7.32;;
27977;SDS011;15314;49.248;6.968;2023-05-07T01:52:55;7.63;;;7.13;;
27977;SDS011;15314;49.248;6.968;2023-05-07T01:53:56;8.35;;;7.70;;
27977;SDS011;15314;49.248;6.968;2023-05-07T01:54:57;7.60;;;7.00;;
27977;SDS011;15314;49.248;6.968;2023-05-07T01:55:58;7.75;;;6.97;;
27977;SDS011;15314;49.248;6.968;2023-05-07T01:56:59;7.50;;;7.10;;
27977;SDS011;15314;49.248;6.968;2023-05-07T01:58:00;7.03;;;6.60;;
27977;SDS011;15314;49.248;6.968;2023-05-07T01:59:00;7.18;;;6.65;;
27977;SDS011;15314;49.248;6.968;2023-05-07T02:00:02;7.47;;;6.78;;
27977;SDS011;15314;49.248;6.968;2023-05-07T02:01:05;7.25;;;6.85;;
27977;SDS011;15314;49.248;6.968;2023-05-07T02:02:05;6.85;;;6.45;;
27977;SDS011;15314;49.248;6.968;2023-05-07T02:03:06;6.82;;;6.40;;
27977;SDS011;15314;49.248;6.968;2023-05-07T02:04:06;6.72;;;6.22;;
27977;SDS011;15314;49.248;6.968;2023-05-07T02:05:07;6.63;;;6.22;;
27977;SDS011;15314;49.248;6.968;2023-05-07T02:06:08;7.38;;;6.88;;
27977;SDS011;15314;49.248;6.968;2023-05-07T02:07:09;7.43;;;6.82;;
27977;SDS011;15314;49.248;6.968;2023-05-07T02:08:10;7.70;;;6.93;;
27977;SDS011;15314;49.248;6.968;2023-05-07T02:09:11;6.40;;;5.90;;
27977;SDS011;15314;49.248;6.968;2023-05-07T02:10:11;7.10;;;6.70;;
27977;SDS011;15314;49.248;6.968;2023-05-07T02:11:12;6.30;;;6.00;;
27977;SDS011;15314;49.248;6.968;2023-05-07T02:12:13;7.43;;;6.78;;
27977;SDS011;15314;49.248;6.968;2023-05-07T02:13:13;7.10;;;6.63;;
27977;SDS011;15314;49.248;6.968;2023-05-07T02:14:14;7.35;;;6.65;;
27977;SDS011;15314;49.248;6.968;2023-05-07T02:15:15;7.22;;;6.72;;
27977;SDS011;15314;49.248;6.968;2023-05-07T02:16:16;7.05;;;6.65;;
27977;SDS011;15314;49.248;6.968;2023-05-07T02:17:16;7.32;;;6.93;;
27977;SDS011;15314;49.248;6.968;2023-05-07T02:18:17;7.28;;;6.80;;
27977;SDS011;15314;49.248;6.968;2023-05-07T02:19:17;7.28;;;6.82;;
27977;SDS011;15314;49.248;6.968;2023-05-07T02:20:21;7.47;;;6.78;;
27977;SDS011;15314;49.248;6.968;2023-05-07T02:21:21;7.45;;;6.95;;
27977;SDS011;15314;49.248;6.968;2023-05-07T02:22:22;7.35;;;6.70;;
27977;SDS011;15314;49.248;6.968;2023-05-07T02:23:23;6.88;;;6.57;;
27977;SDS011;15314;49.248;6.968;2023-05-07T02:24:23;10.55;;;7.13;;
27977;SDS011;15314;49.248;6.968;2023-05-07T02:25:24;6.65;;;6.25;;
27977;SDS011;15314;49.248;6.968;2023-05-07T02:26:25;6.90;;;6.50;;
27977;SDS011;15314;49.248;6.968;2023-05-07T02:27:25;7.03;;;6.50;;
27977;SDS011;15314;49.248;6.968;2023-05-07T02:28:26;6.88;;;6.43;;
27977;SDS011;15314;49.248;6.968;2023-05-07T02:29:27;7.32;;;6.90;;
27977;SDS011;15314;49.248;6.968;2023-05-07T02:30:28;6.68;;;6.28;;
27977;SDS011;15314;49.248;6.968;2023-05-07T02:31:28;7.20;;;6.80;;
27977;SDS011;15314;49.248;6.968;2023-05-07T02:32:29;7.13;;;6.60;;
27977;SDS011;15314;49.248;6.968;2023-05-07T02:33:30;6.85;;;6.40;;
27977;SDS011;15314;49.248;6.968;2023-05-07T02:34:30;6.72;;;6.32;;
27977;SDS011;15314;49.248;6.968;2023-05-07T02:35:31;6.93;;;6.50;;
27977;SDS011;15314;49.248;6.968;2023-05-07T02:36:32;7.63;;;7.05;;
27977;SDS011;15314;49.248;6.968;2023-05-07T02:37:32;7.40;;;7.00;;
27977;SDS011;15314;49.248;6.968;2023-05-07T02:38:33;7.85;;;6.65;;
27977;SDS011;15314;49.248;6.968;2023-05-07T02:39:34;7.40;;;7.00;;
27977;SDS011;15314;49.248;6.968;2023-05-07T02:40:35;7.68;;;7.20;;
27977;SDS011;15314;49.248;6.968;2023-05-07T02:41:38;7.88;;;7.05;;
27977;SDS011;15314;49.248;6.968;2023-05-07T02:42:39;7.57;;;6.97;;
27977;SDS011;15314;49.248;6.968;2023-05-07T02:43:40;7.22;;;6.72;;
27977;SDS011;15314;49.248;6.968;2023-05-07T02:44:40;7.90;;;7.40;;
27977;SDS011;15314;49.248;6.968;2023-05-07T02:45:41;7.55;;;6.95;;
27977;SDS011;15314;49.248;6.968;2023-05-07T02:46:43;7.43;;;6.93;;
27977;SDS011;15314;49.248;6.968;2023-05-07T02:47:43;8.00;;;7.10;;
27977;SDS011;15314;49.248;6.968;2023-05-07T02:48:44;7.57;;;6.97;;
27977;SDS011;15314;49.248;6.968;2023-05-07T02:49:45;7.63;;;7.03;;
27977;SDS011;15314;49.248;6.968;2023-05-07T02:50:45;7.05;;;6.65;;
27977;SDS011;15314;49.248;6.968;2023-05-07T02:51:46;6.95;;;6.50;;
27977;SDS011;15314;49.248;6.968;2023-05-07T02:52:46;7.70;;;7.10;;
27977;SDS011;15314;49.248;6.968;2023-05-07T02:53:47;8.10;;;7.45;;
27977;SDS011;15314;49.248;6.968;2023-05-07T02:54:48;7.95;;;7.20;;
27977;SDS011;15314;49.248;6.968;2023-05-07T02:55:49;7.35;;;6.85;;
27977;SDS011;15314;49.248;6.968;2023-05-07T02:56:50;7.90;;;7.05;;
27977;SDS011;15314;49.248;6.968;2023-05-07T02:57:50;7.28;;;6.88;;
27977;SDS011;15314;49.248;6.968;2023-05-07T02:58:51;7.70;;;7.05;;
27977;SDS011;15314;49.248;6.968;2023-05-07T02:59:51;7.78;;;7.28;;
27977;SDS011;15314;49.248;6.968;2023-05-07T03:00:52;7.10;;;6.68;;
27977;SDS011;15314;49.248;6.968;2023-05-07T03:01:54;7.40;;;6.85;;
27977;SDS011;15314;49.248;6.968;2023-05-07T03:02:55;7.60;;;6.80;;
27977;SDS011;15314;49.248;6.968;2023-05-07T03:03:55;7.60;;;7.05;;
27977;SDS011;15314;49.248;6.968;2023-05-07T03:04:56;7.50;;;7.10;;
27977;SDS011;15314;49.248;6.968;2023-05-07T03:05:57;7.60;;;6.95;;
27977;SDS011;15314;49.248;6.968;2023-05-07T03:06:57;8.02;;;7.32;;
27977;SDS011;15314;49.248;6.968;2023-05-07T03:07:58;7.25;;;6.80;;
27977;SDS011;15314;49.248;6.968;2023-05-07T03:08:59;7.20;;;6.80;;
27977;SDS011;15314;49.248;6.968;2023-05-07T03:09:59;7.88;;;7.20;;
27977;SDS011;15314;49.248;6.968;2023-05-07T03:11:00;7.53;;;7.03;;
27977;SDS011;15314;49.248;6.968;2023-05-07T03:12:00;7.18;;;6.78;;
27977;SDS011;15314;49.248;6.968;2023-05-07T03:13:01;7.70;;;6.78;;
27977;SDS011;15314;49.248;6.968;2023-05-07T03:14:02;7.40;;;6.72;;
27977;SDS011;15314;49.248;6.968;2023-05-07T03:15:03;7.20;;;6.80;;
27977;SDS011;15314;49.248;6.968;2023-05-07T03:16:04;8.95;;;6.82;;
27977;SDS011;15314;49.248;6.968;2023-05-07T03:17:05;7.18;;;6.72;;
27977;SDS011;15314;49.248;6.968;2023-05-07T03:18:05;7.53;;;6.80;;
27977;SDS011;15314;49.248;6.968;2023-05-07T03:19:06;7.47;;;6.85;;
27977;SDS011;15314;49.248;6.968;2023-05-07T03:20:07;7.32;;;6.82;;
27977;SDS011;15314;49.248;6.968;2023-05-07T03:21:09;7.15;;;6.65;;
27977;SDS011;15314;49.248;6.968;2023-05-07T03:22:10;7.78;;;7.28;;
27977;SDS011;15314;49.248;6.968;2023-05-07T03:23:10;7.57;;;7.03;;
27977;SDS011;15314;49.248;6.968;2023-05-07T03:24:11;9.27;;;6.85;;
27977;SDS011;15314;49.248;6.968;2023-05-07T03:25:11;7.47;;;7.07;;
27977;SDS011;15314;49.248;6.968;2023-05-07T03:26:12;7.13;;;6.50;;
27977;SDS011;15314;49.248;6.968;2023-05-07T03:27:13;7.43;;;6.75;;
27977;SDS011;15314;49.248;6.968;2023-05-07T03:28:13;6.82;;;6.32;;
27977;SDS011;15314;49.248;6.968;2023-05-07T03:29:14;8.10;;;7.53;;
27977;SDS011;15314;49.248;6.968;2023-05-07T03:30:15;7.63;;;7.13;;
27977;SDS011;15314;49.248;6.968;2023-05-07T03:31:15;6.97;;;6.53;;
27977;SDS011;15314;49.248;6.968;2023-05-07T03:32:16;7.55;;;7.05;;
27977;SDS011;15314;49.248;6.968;2023-05-07T03:33:17;7.57;;;7.18;;
27977;SDS011;15314;49.248;6.968;2023-05-07T03:34:18;7.97;;;7.32;;
27977;SDS011;15314;49.248;6.968;2023-05-07T03:35:22;7.95;;;7.35;;
27977;SDS011;15314;49.248;6.968;2023-05-07T03:36:22;7.68;;;7.13;;
27977;SDS011;15314;49.248;6.968;2023-05-07T03:37:23;7.25;;;6.85;;
27977;SDS011;15314;49.248;6.968;2023-05-07T03:38:24;7.72;;;7.18;;
27977;SDS011;15314;49.248;6.968;2023-05-07T03:39:25;8.10;;;7.50;;
27977;SDS011;15314;49.248;6.968;2023-05-07T03:40:25;7.78;;;7.28;;
27977;SDS011;15314;49.248;6.968;2023-05-07T03:41:26;7.15;;;6.75;;
27977;SDS011;15314;49.248;6.968;2023-05-07T03:42:27;7.22;;;6.78;;
27977;SDS011;15314;49.248;6.968;2023-05-07T03:43:28;7.53;;;6.97;;
27977;SDS011;15314;49.248;6.968;2023-05-07T03:44:29;7.57;;;6.97;;
27977;SDS011;15314;49.248;6.968;2023-05-07T03:45:30;7.50;;;6.85;;
27977;SDS011;15314;49.248;6.968;2023-05-07T03:46:30;7.80;;;7.13;;
27977;SDS011;15314;49.248;6.968;2023-05-07T03:47:32;7.65;;;7.22;;
27977;SDS011;15314;49.248;6.968;2023-05-07T03:48:33;7.32;;;6.72;;
27977;SDS011;15314;49.248;6.968;2023-05-07T03:49:34;8.50;;;7.57;;
27977;SDS011;15314;49.248;6.968;2023-05-07T03:50:34;7.32;;;6.82;;
27977;SDS011;15314;49.248;6.968;2023-05-07T03:51:35;7.13;;;6.63;;
27977;SDS011;15314;49.248;6.968;2023-05-07T03:52:36;8.00;;;7.25;;
27977;SDS011;15314;49.248;6.968;2023-05-07T03:53:36;7.68;;;7.18;;
27977;SDS011;15314;49.248;6.968;2023-05-07T03:54:37;7.93;;;7.15;;
27977;SDS011;15314;49.248;6.968;2023-05-07T03:55:38;7.10;;;6.70;;
27977;SDS011;15314;49.248;6.968;2023-05-07T03:56:38;6.93;;;6.32;;
27977;SDS011;15314;49.248;6.968;2023-05-07T03:57:39;7.22;;;6.72;;
27977;SDS011;15314;49.248;6.968;2023-05-07T03:58:39;6.97;;;6.47;;
27977;SDS011;15314;49.248;6.968;2023-05-07T03:59:40;8.00;;;7.50;;
27977;SDS011;15314;49.248;6.968;2023-05-07T04:00:41;7.35;;;6.85;;
27977;SDS011;15314;49.248;6.968;2023-05-07T04:01:42;7.57;;;7.18;;
27977;SDS011;15314;49.248;6.968;2023-05-07T04:02:42;7.70;;;7.13;;
27977;SDS011;15314;49.248;6.968;2023-05-07T04:03:44;7.47;;;6.97;;
27977;SDS011;15314;49.248;6.968;2023-05-07T04:04:45;7.38;;;6.90;;
27977;SDS011;15314;49.248;6.968;2023-05-07T04:05:45;7.22;;;6.72;;
27977;SDS011;15314;49.248;6.968;2023-05-07T04:06:46;7.25;;;6.75;;
27977;SDS011;15314;49.248;6.968;2023-05-07T04:07:47;7.07;;;6.63;;
27977;SDS011;15314;49.248;6.968;2023-05-07T04:08:47;7.55;;;7.00;;
27977;SDS011;15314;49.248;6.968;2023-05-07T04:09:48;7.40;;;6.82;;
27977;SDS011;15314;49.248;6.968;2023-05-07T04:10:53;7.50;;;6.95;;
27977;SDS011;15314;49.248;6.968;2023-05-07T04:11:57;7.35;;;6.75;;
27977;SDS011;15314;49.248;6.968;2023-05-07T04:12:58;7.43;;;6.68;;
27977;SDS011;15314;49.248;6.968;2023-05-07T04:13:59;7.80;;;7.20;;
27977;SDS011;15314;49.248;6.968;2023-05-07T04:14:59;7.28;;;6.88;;
27977;SDS011;15314;49.248;6.968;2023-05-07T04:16:01;7.00;;;6.60;;
27977;SDS011;15314;49.248;6.968;2023-05-07T04:17:03;7.38;;;6.97;;
27977;SDS011;15314;49.248;6.968;2023-05-07T04:18:03;8.25;;;7.65;;
27977;SDS011;15314;49.248;6.968;2023-05-07T04:19:04;7.80;;;7.30;;
27977;SDS011;15314;49.248;6.968;2023-05-07T04:20:05;8.52;;;8.02;;
27977;SDS011;15314;49.248;6.968;2023-05-07T04:21:14;7.70;;;7.20;;
27977;SDS011;15314;49.248;6.968;2023-05-07T04:22:15;7.78;;;7.28;;
27977;SDS011;15314;49.248;6.968;2023-05-07T04:23:16;7.20;;;6.80;;
27977;SDS011;15314;49.248;6.968;2023-05-07T04:24:17;7.75;;;7.15;;
27977;SDS011;15314;49.248;6.968;2023-05-07T04:25:17;7.82;;;7.22;;
27977;SDS011;15314;49.248;6.968;2023-05-07T04:26:18;9.05;;;8.40;;
27977;SDS011;15314;49.248;6.968;2023-05-07T04:27:19;7.97;;;7.50;;
27977;SDS011;15314;49.248;6.968;2023-05-07T04:28:20;7.72;;;7.22;;
27977;SDS011;15314;49.248;6.968;2023-05-07T04:29:20;8.05;;;7.50;;
27977;SDS011;15314;49.248;6.968;2023-05-07T04:30:21;8.05;;;7.65;;
27977;SDS011;15314;49.248;6.968;2023-05-07T04:31:22;8.27;;;7.88;;
27977;SDS011;15314;49.248;6.968;2023-05-07T04:32:22;7.90;;;7.40;;
27977;SDS011;15314;49.248;6.968;2023-05-07T04:33:24;7.85;;;7.20;;
27977;SDS011;15314;49.248;6.968;2023-05-07T04:34:25;8.40;;;7.80;;
27977;SDS011;15314;49.248;6.968;2023-05-07T04:35:26;8.02;;;7.25;;
27977;SDS011;15314;49.248;6.968;2023-05-07T04:36:26;8.10;;;7.60;;
27977;SDS011;15314;49.248;6.968;2023-05-07T04:37:27;8.30;;;7.80;;
27977;SDS011;15314;49.248;6.968;2023-05-07T04:38:31;8.02;;;7.45;;
27977;SDS011;15314;49.248;6.968;2023-05-07T04:39:32;8.82;;;8.23;;
27977;SDS011;15314;49.248;6.968;2023-05-07T04:40:35;8.73;;;7.93;;
27977;SDS011;15314;49.248;6.968;2023-05-07T04:41:36;8.98;;;8.25;;
27977;SDS011;15314;49.248;6.968;2023-05-07T04:42:37;8.13;;;7.57;;
27977;SDS011;15314;49.248;6.968;2023-05-07T04:43:37;8.70;;;8.05;;
27977;SDS011;15314;49.248;6.968;2023-05-07T04:44:38;8.52;;;7.82;;
27977;SDS011;15314;49.248;6.968;2023-05-07T04:45:39;8.55;;;8.05;;
27977;SDS011;15314;49.248;6.968;2023-05-07T04:46:41;7.63;;;7.20;;
27977;SDS011;15314;49.248;6.968;2023-05-07T04:47:42;8.45;;;7.75;;
27977;SDS011;15314;49.248;6.968;2023-05-07T04:48:42;8.80;;;8.10;;
27977;SDS011;15314;49.248;6.968;2023-05-07T04:49:43;8.20;;;7.68;;
27977;SDS011;15314;49.248;6.968;2023-05-07T04:50:43;7.80;;;7.32;;
27977;SDS011;15314;49.248;6.968;2023-05-07T04:51:44;8.18;;;7.63;;
27977;SDS011;15314;49.248;6.968;2023-05-07T04:52:45;7.35;;;6.85;;
27977;SDS011;15314;49.248;6.968;2023-05-07T04:53:46;9.13;;;8.43;;
27977;SDS011;15314;49.248;6.968;2023-05-07T04:54:46;8.10;;;7.65;;
27977;SDS011;15314;49.248;6.968;2023-05-07T04:55:47;8.75;;;8.15;;
27977;SDS011;15314;49.248;6.968;2023-05-07T04:56:48;8.45;;;7.90;;
27977;SDS011;15314;49.248;6.968;2023-05-07T04:57:48;9.50;;;8.70;;
27977;SDS011;15314;49.248;6.968;2023-05-07T04:58:50;8.50;;;7.95;;
27977;SDS011;15314;49.248;6.968;2023-05-07T04:59:51;8.20;;;7.43;;
27977;SDS011;15314;49.248;6.968;2023-05-07T05:00:51;8.20;;;7.70;;
27977;SDS011;15314;49.248;6.968;2023-05-07T05:01:52;8.25;;;7.75;;
27977;SDS011;15314;49.248;6.968;2023-05-07T05:02:53;8.40;;;7.90;;
27977;SDS011;15314;49.248;6.968;2023-05-07T05:03:53;8.02;;;7.53;;
27977;SDS011;15314;49.248;6.968;2023-05-07T05:04:54;8.45;;;7.78;;
27977;SDS011;15314;49.248;6.968;2023-05-07T05:05:55;8.75;;;8.25;;
27977;SDS011;15314;49.248;6.968;2023-05-07T05:06:57;8.48;;;7.80;;
27977;SDS011;15314;49.248;6.968;2023-05-07T05:07:58;8.48;;;7.80;;
27977;SDS011;15314;49.248;6.968;2023-05-07T05:08:58;7.47;;;7.07;;
27977;SDS011;15314;49.248;6.968;2023-05-07T05:09:59;8.10;;;7.57;;
27977;SDS011;15314;49.248;6.968;2023-05-07T05:11:01;7.68;;;7.18;;
27977;SDS011;15314;49.248;6.968;2023-05-07T05:12:02;8.25;;;7.65;;
27977;SDS011;15314;49.248;6.968;2023-05-07T05:13:03;8.63;;;7.80;;
27977;SDS011;15314;49.248;6.968;2023-05-07T05:14:04;8.50;;;7.88;;
27977;SDS011;15314;49.248;6.968;2023-05-07T05:15:04;7.25;;;6.85;;
27977;SDS011;15314;49.248;6.968;2023-05-07T05:16:06;7.40;;;6.97;;
27977;SDS011;15314;49.248;6.968;2023-05-07T05:17:06;8.02;;;7.60;;
27977;SDS011;15314;49.248;6.968;2023-05-07T05:18:07;7.75;;;7.20;;
27977;SDS011;15314;49.248;6.968;2023-05-07T05:19:08;7.68;;;7.18;;
27977;SDS011;15314;49.248;6.968;2023-05-07T05:20:08;7.15;;;6.75;;
27977;SDS011;15314;49.248;6.968;2023-05-07T05:21:10;8.02;;;7.30;;
27977;SDS011;15314;49.248;6.968;2023-05-07T05:22:11;8.20;;;7.43;;
27977;SDS011;15314;49.248;6.968;2023-05-07T05:23:11;7.93;;;7.53;;
27977;SDS011;15314;49.248;6.968;2023-05-07T05:24:12;8.00;;;7.43;;
27977;SDS011;15314;49.248;6.968;2023-05-07T05:25:13;8.48;;;7.97;;
27977;SDS011;15314;49.248;6.968;2023-05-07T05:26:13;9.25;;;8.55;;
27977;SDS011;15314;49.248;6.968;2023-05-07T05:27:14;8.80;;;8.20;;
27977;SDS011;15314;49.248;6.968;2023-05-07T05:28:15;8.60;;;8.02;;
27977;SDS011;15314;49.248;6.968;2023-05-07T05:29:15;9.13;;;8.52;;
27977;SDS011;15314;49.248;6.968;2023-05-07T05:30:16;8.25;;;7.82;;
27977;SDS011;15314;49.248;6.968;2023-05-07T05:31:17;7.93;;;7.40;;
27977;SDS011;15314;49.248;6.968;2023-05-07T05:32:17;8.55;;;7.95;;
27977;SDS011;15314;49.248;6.968;2023-05-07T05:33:18;8.80;;;8.25;;
27977;SDS011;15314;49.248;6.968;2023-05-07T05:34:18;8.50;;;7.85;;
27977;SDS011;15314;49.248;6.968;2023-05-07T05:35:22;8.75;;;7.95;;
27977;SDS011;15314;49.248;6.968;2023-05-07T05:36:22;8.70;;;8.10;;
27977;SDS011;15314;49.248;6.968;2023-05-07T05:37:23;8.50;;;8.00;;
27977;SDS011;15314;49.248;6.968;2023-05-07T05:38:25;8.45;;;7.78;;
27977;SDS011;15314;49.248;6.968;2023-05-07T05:39:25;8.55;;;7.97;;
27977;SDS011;15314;49.248;6.968;2023-05-07T05:40:26;8.63;;;7.78;;
27977;SDS011;15314;49.248;6.968;2023-05-07T05:41:27;8.13;;;7.63;;
27977;SDS011;15314;49.248;6.968;2023-05-07T05:42:27;8.02;;;7.50;;
27977;SDS011;15314;49.248;6.968;2023-05-07T05:43:28;9.07;;;8.48;;
27977;SDS011;15314;49.248;6.968;2023-05-07T05:44:29;7.68;;;7.13;;
27977;SDS011;15314;49.248;6.968;2023-05-07T05:45:29;8.00;;;7.40;;
27977;SDS011;15314;49.248;6.968;2023-05-07T05:46:30;7.38;;;6.97;;
27977;SDS011;15314;49.248;6.968;2023-05-07T05:47:31;7.78;;;7.22;;
27977;SDS011;15314;49.248;6.968;2023-05-07T05:48:31;7.75;;;7.10;;
27977;SDS011;15314;49.248;6.968;2023-05-07T05:49:32;8.15;;;7.65;;
27977;SDS011;15314;49.248;6.968;2023-05-07T05:50:34;8.07;;;7.50;;
27977;SDS011;15314;49.248;6.968;2023-05-07T05:51:36;7.75;;;7.25;;
27977;SDS011;15314;49.248;6.968;2023-05-07T05:52:37;7.82;;;7.43;;
27977;SDS011;15314;49.248;6.968;2023-05-07T05:53:37;8.07;;;7.55;;
27977;SDS011;15314;49.248;6.968;2023-05-07T05:54:38;8.20;;;7.75;;
27977;SDS011;15314;49.248;6.968;2023-05-07T05:55:39;7.82;;;7.32;;
27977;SDS011;15314;49.248;6.968;2023-05-07T05:56:39;8.05;;;7.45;;
27977;SDS011;15314;49.248;6.968;2023-05-07T05:57:40;8.32;;;7.60;;
27977;SDS011;15314;49.248;6.968;2023-05-07T05:58:41;7.60;;;7.10;;
27977;SDS011;15314;49.248;6.968;2023-05-07T05:59:42;7.20;;;6.78;;
27977;SDS011;15314;49.248;6.968;2023-05-07T06:00:43;7.35;;;6.75;;
27977;SDS011;15314;49.248;6.968;2023-05-07T06:01:44;7.70;;;7.20;;
27977;SDS011;15314;49.248;6.968;2023-05-07T06:02:45;8.02;;;7.40;;
27977;SDS011;15314;49.248;6.968;2023-05-07T06:03:46;7.47;;;7.07;;
27977;SDS011;15314;49.248;6.968;2023-05-07T06:04:46;7.75;;;7.35;;
27977;SDS011;15314;49.248;6.968;2023-05-07T06:05:47;7.90;;;7.35;;
27977;SDS011;15314;49.248;6.968;2023-05-07T06:06:48;7.78;;;7.00;;
27977;SDS011;15314;49.248;6.968;2023-05-07T06:07:48;7.88;;;7.22;;